createdAt,value
2019-02-02T00:00:35.308Z,98098.70
2019-02-02T00:03:03.599Z,98095.20
2019-02-02T00:05:31.379Z,98097.42
2019-02-02T00:07:59.159Z,98100.78
2019-02-02T00:10:26.963Z,98104.19
2019-02-02T00:12:54.737Z,98098.20
2019-02-02T00:15:22.571Z,98101.86
2019-02-02T00:17:50.369Z,98115.69
2019-02-02T00:20:18.211Z,98123.39
2019-02-02T00:22:46.131Z,98132.59
2019-02-02T00:25:14.039Z,98124.66
2019-02-02T00:27:41.900Z,98116.84
2019-02-02T00:30:10.956Z,98113.67
2019-02-02T00:32:38.743Z,98106.94
2019-02-02T00:35:06.623Z,98114.01
2019-02-02T00:37:34.405Z,98120.83
2019-02-02T00:40:02.303Z,98134.74
2019-02-02T00:42:30.055Z,98126.34
2019-02-02T00:44:57.831Z,98131.30
2019-02-02T00:47:25.595Z,98124.49
2019-02-02T00:49:53.402Z,98118.94
2019-02-02T00:52:21.147Z,98110.31
2019-02-02T00:54:48.925Z,98096.64
2019-02-02T00:57:16.656Z,98086.95
2019-02-02T00:59:44.410Z,98081.88
2019-02-02T01:02:12.118Z,98084.31
2019-02-02T01:04:39.886Z,98104.41
2019-02-02T01:07:07.640Z,98115.42
2019-02-02T01:09:35.432Z,98123.75
2019-02-02T01:12:03.315Z,98117.38
2019-02-02T01:14:31.066Z,98116.50
2019-02-02T01:16:58.847Z,98114.95
2019-02-02T01:19:26.614Z,98116.91
2019-02-02T01:21:54.386Z,98117.73
2019-02-02T01:24:22.240Z,98107.13
2019-02-02T01:26:50.004Z,98104.06
2019-02-02T01:29:17.774Z,98115.12
2019-02-02T01:31:45.572Z,98122.93
2019-02-02T01:34:13.362Z,98114.56
2019-02-02T01:36:41.114Z,98109.62
2019-02-02T01:39:08.880Z,98103.23
2019-02-02T01:41:36.700Z,98091.03
2019-02-02T01:44:04.676Z,98077.05
2019-02-02T01:46:32.449Z,98079.71
2019-02-02T01:49:00.239Z,98076.56
2019-02-02T01:51:28.052Z,98066.66
2019-02-02T01:53:55.800Z,98062.45
2019-02-02T01:56:23.555Z,98068.62
2019-02-02T01:58:51.292Z,98066.25
2019-02-02T02:01:19.098Z,98064.63
2019-02-02T02:03:46.823Z,98075.57
2019-02-02T02:06:14.613Z,98085.81
2019-02-02T02:08:42.377Z,98076.69
2019-02-02T02:11:10.262Z,98072.23
2019-02-02T02:13:38.133Z,98076.08
2019-02-02T02:16:05.888Z,98075.57
2019-02-02T02:18:33.677Z,98078.73
2019-02-02T02:21:01.466Z,98074.90
2019-02-02T02:23:29.277Z,98081.91
2019-02-02T02:25:57.049Z,98082.22
2019-02-02T02:28:28.180Z,98084.73
2019-02-02T02:30:54.511Z,98101.06
2019-02-02T02:33:22.273Z,98104.85
2019-02-02T02:35:50.006Z,98121.11
2019-02-02T02:38:17.795Z,98110.44
2019-02-02T02:40:45.561Z,98123.03
2019-02-02T02:43:13.347Z,98124.91
2019-02-02T02:45:41.067Z,98121.83
2019-02-02T02:48:08.834Z,98115.09
2019-02-02T02:50:36.607Z,98109.90
2019-02-02T02:53:04.408Z,98101.63
2019-02-02T02:55:32.195Z,98109.03
2019-02-02T02:57:59.997Z,98107.44
2019-02-02T03:00:27.808Z,98105.77
2019-02-02T03:02:55.670Z,98099.81
2019-02-02T03:05:23.427Z,98088.57
2019-02-02T03:07:52.004Z,98096.09
2019-02-02T03:10:21.319Z,98099.91
2019-02-02T03:12:49.433Z,98098.62
2019-02-02T03:15:18.010Z,98100.02
2019-02-02T03:17:45.921Z,98095.52
2019-02-02T03:20:14.324Z,98097.03
2019-02-02T03:22:42.148Z,98094.74
2019-02-02T03:25:15.932Z,98094.74
2019-02-02T03:27:43.715Z,98094.70
2019-02-02T03:30:14.700Z,98101.85
2019-02-02T03:32:42.565Z,98104.69
2019-02-02T03:35:11.765Z,98100.47
2019-02-02T03:37:39.541Z,98093.35
2019-02-02T03:40:14.029Z,98101.56
2019-02-02T03:42:41.757Z,98098.44
2019-02-02T03:45:10.666Z,98097.02
2019-02-02T03:47:38.400Z,98099.45
2019-02-02T03:50:07.199Z,98095.66
2019-02-02T03:52:34.972Z,98089.44
2019-02-02T03:55:03.100Z,98087.03
2019-02-02T03:57:30.828Z,98098.09
2019-02-02T03:59:58.592Z,98092.18
2019-02-02T04:02:26.330Z,98095.81
2019-02-02T04:04:54.091Z,98096.33
2019-02-02T04:07:21.842Z,98090.21
2019-02-02T04:09:49.688Z,98094.48
2019-02-02T04:12:17.493Z,98105.27
2019-02-02T04:14:45.289Z,98122.30
2019-02-02T04:17:13.059Z,98113.36
2019-02-02T04:19:40.825Z,98098.55
2019-02-02T04:22:08.595Z,98103.65
2019-02-02T04:24:36.336Z,98100.63
2019-02-02T04:27:04.071Z,98101.25
2019-02-02T04:29:31.848Z,98104.93
2019-02-02T04:31:59.607Z,98109.20
2019-02-02T04:34:27.395Z,98105.33
2019-02-02T04:36:55.127Z,98108.33
2019-02-02T04:39:22.909Z,98106.48
2019-02-02T04:41:50.680Z,98130.66
2019-02-02T04:44:18.461Z,98139.82
2019-02-02T04:46:46.205Z,98145.20
2019-02-02T04:49:13.993Z,98145.48
2019-02-02T04:51:41.745Z,98146.36
2019-02-02T04:54:09.485Z,98135.09
2019-02-02T04:56:37.231Z,98133.23
2019-02-02T04:59:05.014Z,98125.64
2019-02-02T05:01:34.116Z,98139.02
2019-02-02T05:04:01.917Z,98138.19
2019-02-02T05:06:29.683Z,98143.88
2019-02-02T05:08:57.431Z,98150.38
2019-02-02T05:11:25.181Z,98143.22
2019-02-02T05:13:52.933Z,98147.58
2019-02-02T05:16:20.716Z,98141.60
2019-02-02T05:18:48.471Z,98139.29
2019-02-02T05:21:16.258Z,98136.13
2019-02-02T05:23:43.992Z,98139.16
2019-02-02T05:26:11.789Z,98135.61
2019-02-02T05:28:39.590Z,98142.45
2019-02-02T05:31:07.380Z,98147.19
2019-02-02T05:33:35.153Z,98145.34
2019-02-02T05:36:03.008Z,98142.31
2019-02-02T05:38:30.766Z,98142.68
2019-02-02T05:40:58.530Z,98140.90
2019-02-02T05:43:26.284Z,98137.13
2019-02-02T05:45:54.040Z,98137.66
2019-02-02T05:48:21.886Z,98140.86
2019-02-02T05:50:49.719Z,98142.70
2019-02-02T05:53:17.434Z,98144.61
2019-02-02T05:55:45.196Z,98150.16
2019-02-02T05:58:12.948Z,98152.22
2019-02-02T06:00:46.960Z,98167.31
2019-02-02T06:03:14.692Z,98165.67
2019-02-02T06:05:42.456Z,98168.98
2019-02-02T06:08:10.234Z,98161.59
2019-02-02T06:10:37.997Z,98160.43
2019-02-02T06:13:05.749Z,98151.20
2019-02-02T06:15:33.486Z,98154.82
2019-02-02T06:18:01.255Z,98150.84
2019-02-02T06:20:29.022Z,98145.88
2019-02-02T06:22:56.757Z,98148.23
2019-02-02T06:25:24.550Z,98149.27
2019-02-02T06:27:52.300Z,98153.11
2019-02-02T06:30:20.273Z,98170.91
2019-02-02T06:32:48.263Z,98184.27
2019-02-02T06:35:16.231Z,98186.34
2019-02-02T06:37:43.997Z,98202.52
2019-02-02T06:40:12.418Z,98222.02
2019-02-02T06:42:40.293Z,98226.73
2019-02-02T06:45:12.989Z,98235.77
2019-02-02T06:47:40.782Z,98239.64
2019-02-02T06:50:12.541Z,98242.59
2019-02-02T06:52:40.340Z,98245.24
2019-02-02T06:55:09.216Z,98237.98
2019-02-02T06:57:36.975Z,98236.33
2019-02-02T07:00:15.860Z,98236.48
2019-02-02T07:02:37.123Z,98230.65
2019-02-02T07:05:05.453Z,98219.18
2019-02-02T07:07:33.196Z,98216.66
2019-02-02T07:10:00.932Z,98216.66
2019-02-02T07:12:28.757Z,98221.83
2019-02-02T07:14:56.497Z,98218.37
2019-02-02T07:17:24.232Z,98211.34
2019-02-02T07:19:51.966Z,98229.98
2019-02-02T07:22:19.760Z,98243.05
2019-02-02T07:24:50.071Z,98247.27
2019-02-02T07:27:17.204Z,98253.25
2019-02-02T07:29:44.988Z,98256.44
2019-02-02T07:32:12.759Z,98248.90
2019-02-02T07:34:40.522Z,98244.38
2019-02-02T07:37:08.284Z,98241.58
2019-02-02T07:39:36.056Z,98253.25
2019-02-02T07:42:03.882Z,98254.30
2019-02-02T07:44:31.723Z,98241.19
2019-02-02T07:46:59.500Z,98239.13
2019-02-02T07:49:27.282Z,98253.69
2019-02-02T07:51:55.034Z,98249.18
2019-02-02T07:54:22.816Z,98247.13
2019-02-02T07:56:50.537Z,98271.02
2019-02-02T07:59:18.299Z,98278.83
2019-02-02T08:01:46.040Z,98272.84
2019-02-02T08:04:13.792Z,98289.62
2019-02-02T08:06:41.567Z,98295.40
2019-02-02T08:09:09.436Z,98297.17
2019-02-02T08:11:37.209Z,98304.34
2019-02-02T08:14:05.317Z,98300.36
2019-02-02T08:16:33.087Z,98314.42
2019-02-02T08:19:00.829Z,98316.18
2019-02-02T08:21:28.587Z,98336.16
2019-02-02T08:23:56.385Z,98342.31
2019-02-02T08:26:24.149Z,98346.67
2019-02-02T08:28:51.934Z,98350.95
2019-02-02T08:31:19.740Z,98350.14
2019-02-02T08:33:47.506Z,98350.91
2019-02-02T08:36:15.303Z,98358.95
2019-02-02T08:38:43.073Z,98360.28
2019-02-02T08:41:10.894Z,98358.30
2019-02-02T08:43:38.919Z,98360.28
2019-02-02T08:46:06.737Z,98359.38
2019-02-02T08:48:34.548Z,98365.62
2019-02-02T08:51:02.374Z,98358.50
2019-02-02T08:53:30.238Z,98361.11
2019-02-02T08:55:58.081Z,98367.31
2019-02-02T08:58:25.832Z,98360.52
2019-02-02T09:01:03.819Z,98361.31
2019-02-02T09:03:23.501Z,98367.89
2019-02-02T09:05:51.439Z,98364.91
2019-02-02T09:08:19.235Z,98365.00
2019-02-02T09:10:47.056Z,98357.38
2019-02-02T09:13:15.343Z,98356.09
2019-02-02T09:15:43.225Z,98355.35
2019-02-02T09:18:11.083Z,98364.69
2019-02-02T09:20:38.928Z,98367.86
2019-02-02T09:23:06.905Z,98364.69
2019-02-02T09:25:34.794Z,98363.63
2019-02-02T09:28:02.634Z,98362.97
2019-02-02T09:30:33.599Z,98362.43
2019-02-02T09:33:01.382Z,98367.02
2019-02-02T09:35:29.352Z,98367.86
2019-02-02T09:37:57.134Z,98355.48
2019-02-02T09:40:25.719Z,98362.47
2019-02-02T09:42:53.670Z,98367.66
2019-02-02T09:45:21.748Z,98372.49
2019-02-02T09:47:50.127Z,98375.25
2019-02-02T09:50:20.444Z,98377.87
2019-02-02T09:52:48.240Z,98377.14
2019-02-02T09:55:18.140Z,98381.77
2019-02-02T09:57:47.168Z,98388.28
2019-02-02T10:00:21.433Z,98394.71
2019-02-02T10:02:49.640Z,98412.66
2019-02-02T10:05:19.257Z,98405.48
2019-02-02T10:07:47.898Z,98401.97
2019-02-02T10:10:18.758Z,98401.27
2019-02-02T10:12:46.525Z,98396.75
2019-02-02T10:15:16.409Z,98401.28
2019-02-02T10:17:44.204Z,98394.40
2019-02-02T10:20:15.488Z,98393.13
2019-02-02T10:22:43.485Z,98395.73
2019-02-02T10:25:14.040Z,98382.28
2019-02-02T10:27:41.897Z,98381.41
2019-02-02T10:30:36.982Z,98387.03
2019-02-02T10:33:05.173Z,98379.06
2019-02-02T10:35:33.152Z,98384.14
2019-02-02T10:38:01.205Z,98387.02
2019-02-02T10:40:30.125Z,98386.45
2019-02-02T10:42:58.127Z,98388.04
2019-02-02T10:45:25.901Z,98385.30
2019-02-02T10:47:53.689Z,98389.27
2019-02-02T10:50:21.579Z,98393.05
2019-02-02T10:52:49.672Z,98387.73
2019-02-02T10:55:17.631Z,98388.42
2019-02-02T10:57:45.527Z,98389.11
2019-02-02T11:00:20.489Z,98392.53
2019-02-02T11:02:48.267Z,98391.38
2019-02-02T11:05:16.449Z,98400.44
2019-02-02T11:07:44.340Z,98408.52
2019-02-02T11:10:18.279Z,98419.33
2019-02-02T11:12:46.472Z,98429.03
2019-02-02T11:15:15.929Z,98425.75
2019-02-02T11:17:43.819Z,98437.73
2019-02-02T11:20:17.579Z,98442.92
2019-02-02T11:22:44.950Z,98433.23
2019-02-02T11:25:13.073Z,98435.33
2019-02-02T11:27:40.984Z,98437.54
2019-02-02T11:30:10.800Z,98440.12
2019-02-02T11:32:38.653Z,98439.30
2019-02-02T11:35:08.876Z,98440.34
2019-02-02T11:37:36.710Z,98436.08
2019-02-02T11:40:06.010Z,98442.02
2019-02-02T11:42:33.929Z,98444.16
2019-02-02T11:45:01.854Z,98434.52
2019-02-02T11:47:29.676Z,98443.23
2019-02-02T11:49:57.496Z,98443.09
2019-02-02T11:52:25.284Z,98449.86
2019-02-02T11:54:53.204Z,98469.45
2019-02-02T11:57:21.067Z,98476.20
2019-02-02T11:59:48.840Z,98475.16
2019-02-02T12:02:16.634Z,98479.02
2019-02-02T12:04:44.417Z,98477.54
2019-02-02T12:07:12.202Z,98485.69
2019-02-02T12:09:40.073Z,98492.05
2019-02-02T12:12:07.845Z,98485.25
2019-02-02T12:14:35.653Z,98494.27
2019-02-02T12:17:03.426Z,98496.56
2019-02-02T12:19:31.231Z,98495.14
2019-02-02T12:21:58.976Z,98492.91
2019-02-02T12:24:26.783Z,98479.83
2019-02-02T12:26:54.595Z,98493.06
2019-02-02T12:29:22.472Z,98491.14
2019-02-02T12:31:50.283Z,98475.52
2019-02-02T12:34:18.076Z,98484.17
2019-02-02T12:36:45.871Z,98500.19
2019-02-02T12:39:13.668Z,98496.78
2019-02-02T12:41:41.469Z,98506.17
2019-02-02T12:44:09.619Z,98505.77
2019-02-02T12:46:37.483Z,98513.67
2019-02-02T12:49:05.270Z,98516.27
2019-02-02T12:51:33.051Z,98526.42
2019-02-02T12:54:00.977Z,98526.62
2019-02-02T12:56:28.791Z,98538.17
2019-02-02T12:58:56.617Z,98535.73
2019-02-02T13:01:24.437Z,98538.27
2019-02-02T13:04:01.335Z,98538.20
2019-02-02T13:06:21.963Z,98551.78
2019-02-02T13:08:49.807Z,98545.81
2019-02-02T13:11:17.639Z,98548.33
2019-02-02T13:13:45.437Z,98555.63
2019-02-02T13:16:13.255Z,98574.03
2019-02-02T13:18:41.117Z,98572.31
2019-02-02T13:21:09.518Z,98561.34
2019-02-02T13:23:37.312Z,98570.09
2019-02-02T13:26:05.888Z,98571.84
2019-02-02T13:28:36.360Z,98580.60
2019-02-02T13:31:04.297Z,98582.13
2019-02-02T13:33:32.149Z,98587.94
2019-02-02T13:35:59.928Z,98585.20
2019-02-02T13:38:27.705Z,98586.44
2019-02-02T13:40:55.521Z,98595.89
2019-02-02T13:43:23.487Z,98604.21
2019-02-02T13:45:51.394Z,98592.31
2019-02-02T13:48:19.202Z,98598.27
2019-02-02T13:50:47.069Z,98594.80
2019-02-02T13:53:15.024Z,98601.56
2019-02-02T13:55:42.855Z,98596.52
2019-02-02T13:58:10.694Z,98597.41
2019-02-02T14:00:38.512Z,98606.58
2019-02-02T14:03:06.456Z,98597.18
2019-02-02T14:05:34.344Z,98614.83
2019-02-02T14:08:02.392Z,98614.70
2019-02-02T14:10:31.405Z,98612.83
2019-02-02T14:12:59.317Z,98610.45
2019-02-02T14:15:27.086Z,98617.88
2019-02-02T14:17:54.935Z,98614.05
2019-02-02T14:20:22.876Z,98610.83
2019-02-02T14:22:50.841Z,98612.61
2019-02-02T14:25:18.763Z,98612.71
2019-02-02T14:27:46.593Z,98612.28
2019-02-02T14:30:19.734Z,98618.87
2019-02-02T14:32:47.648Z,98628.54
2019-02-02T14:35:17.041Z,98632.19
2019-02-02T14:37:45.143Z,98636.20
2019-02-02T14:40:14.022Z,98635.14
2019-02-02T14:42:41.937Z,98640.76
2019-02-02T14:45:12.947Z,98644.50
2019-02-02T14:47:40.729Z,98656.84
2019-02-02T14:50:12.587Z,98661.47
2019-02-02T14:52:40.385Z,98671.61
2019-02-02T14:55:10.529Z,98672.22
2019-02-02T14:57:38.272Z,98685.88
2019-02-02T15:00:11.866Z,98696.31
2019-02-02T15:02:39.746Z,98703.55
2019-02-02T15:05:09.419Z,98705.62
2019-02-02T15:07:37.276Z,98711.83
2019-02-02T15:10:05.927Z,98723.96
2019-02-02T15:12:33.729Z,98741.93
2019-02-02T15:15:01.491Z,98749.31
2019-02-02T15:17:29.289Z,98757.66
2019-02-02T15:19:57.087Z,98753.88
2019-02-02T15:22:24.861Z,98760.96
2019-02-02T15:24:52.651Z,98761.33
2019-02-02T15:27:20.405Z,98781.06
2019-02-02T15:29:48.269Z,98780.52
2019-02-02T15:32:16.066Z,98790.42
2019-02-02T15:34:43.834Z,98796.17
2019-02-02T15:37:11.580Z,98800.48
2019-02-02T15:39:39.396Z,98794.98
2019-02-02T15:42:07.227Z,98803.58
2019-02-02T15:44:35.148Z,98807.18
2019-02-02T15:47:02.940Z,98799.55
2019-02-02T15:49:30.833Z,98804.11
2019-02-02T15:51:58.612Z,98807.28
2019-02-02T15:54:26.404Z,98811.78
2019-02-02T15:56:54.200Z,98814.76
2019-02-02T15:59:21.986Z,98820.09
2019-02-02T16:01:49.776Z,98828.13
2019-02-02T16:04:17.545Z,98830.36
2019-02-02T16:06:45.514Z,98820.78
2019-02-02T16:09:13.302Z,98822.19
2019-02-02T16:11:41.077Z,98820.53
2019-02-02T16:14:08.844Z,98820.84
2019-02-02T16:16:36.617Z,98827.48
2019-02-02T16:19:04.655Z,98833.77
2019-02-02T16:21:32.683Z,98836.19
2019-02-02T16:24:00.456Z,98842.87
2019-02-02T16:26:28.257Z,98847.98
2019-02-02T16:28:56.080Z,98854.72
2019-02-02T16:31:23.939Z,98859.29
2019-02-02T16:34:01.485Z,98860.05
2019-02-02T16:36:21.415Z,98858.21
2019-02-02T16:38:49.190Z,98874.59
2019-02-02T16:41:16.963Z,98872.95
2019-02-02T16:43:44.819Z,98888.00
2019-02-02T16:46:12.636Z,98888.72
2019-02-02T16:48:40.472Z,98892.19
2019-02-02T16:51:08.382Z,98898.24
2019-02-02T16:53:36.153Z,98900.59
2019-02-02T16:56:04.155Z,98905.21
2019-02-02T16:58:31.982Z,98900.91
2019-02-02T17:01:01.693Z,98900.40
2019-02-02T17:03:31.345Z,98890.98
2019-02-02T17:05:59.112Z,98882.80
2019-02-02T17:08:26.890Z,98893.75
2019-02-02T17:10:54.745Z,98902.14
2019-02-02T17:13:22.545Z,98897.95
2019-02-02T17:15:50.376Z,98901.02
2019-02-02T17:18:18.163Z,98893.05
2019-02-02T17:20:45.923Z,98899.48
2019-02-02T17:23:13.749Z,98909.63
2019-02-02T17:25:41.611Z,98908.59
2019-02-02T17:28:09.524Z,98918.12
2019-02-02T17:30:37.438Z,98923.97
2019-02-02T17:33:08.759Z,98933.28
2019-02-02T17:35:36.632Z,98934.61
2019-02-02T17:38:04.534Z,98929.70
2019-02-02T17:40:32.299Z,98925.30
2019-02-02T17:43:00.154Z,98929.07
2019-02-02T17:45:30.762Z,98933.39
2019-02-02T17:47:58.714Z,98933.99
2019-02-02T17:50:26.595Z,98932.03
2019-02-02T17:52:54.614Z,98940.14
2019-02-02T17:55:23.690Z,98934.92
2019-02-02T17:57:51.589Z,98957.33
2019-02-02T18:00:32.996Z,98969.09
2019-02-02T18:03:00.838Z,98970.45
2019-02-02T18:05:28.658Z,98971.96
2019-02-02T18:07:56.444Z,98976.70
2019-02-02T18:10:24.272Z,98976.49
2019-02-02T18:12:52.072Z,98981.08
2019-02-02T18:15:19.953Z,98984.48
2019-02-02T18:17:47.778Z,98988.37
2019-02-02T18:20:15.799Z,98994.20
2019-02-02T18:22:43.720Z,99005.36
2019-02-02T18:25:12.619Z,99006.10
2019-02-02T18:27:40.545Z,99019.71
2019-02-02T18:30:13.191Z,99016.96
2019-02-02T18:32:41.080Z,99021.55
2019-02-02T18:35:09.704Z,99032.31
2019-02-02T18:37:37.514Z,99034.45
2019-02-02T18:40:06.898Z,99042.14
2019-02-02T18:42:34.672Z,99045.92
2019-02-02T18:45:03.147Z,99051.45
2019-02-02T18:47:31.029Z,99052.50
2019-02-02T18:49:58.859Z,99059.95
2019-02-02T18:52:26.689Z,99071.64
2019-02-02T18:54:54.485Z,99075.43
2019-02-02T18:57:22.332Z,99076.17
2019-02-02T18:59:50.145Z,99075.97
2019-02-02T19:02:17.965Z,99089.86
2019-02-02T19:04:45.725Z,99094.81
2019-02-02T19:07:13.493Z,99106.45
2019-02-02T19:09:41.299Z,99098.39
2019-02-02T19:12:09.276Z,99100.73
2019-02-02T19:14:37.063Z,99112.99
2019-02-02T19:17:04.917Z,99115.80
2019-02-02T19:19:32.675Z,99128.91
2019-02-02T19:22:00.437Z,99133.39
2019-02-02T19:24:28.246Z,99136.39
2019-02-02T19:26:56.015Z,99140.20
2019-02-02T19:29:23.780Z,99135.48
2019-02-02T19:31:51.559Z,99136.17
2019-02-02T19:34:19.446Z,99129.73
2019-02-02T19:36:47.235Z,99145.81
2019-02-02T19:39:14.972Z,99146.45
2019-02-02T19:41:42.748Z,99157.22
2019-02-02T19:44:10.503Z,99158.20
2019-02-02T19:46:38.349Z,99157.37
2019-02-02T19:49:06.089Z,99152.08
2019-02-02T19:51:33.858Z,99156.09
2019-02-02T19:54:01.936Z,99160.80
2019-02-02T19:56:29.730Z,99160.50
2019-02-02T19:58:57.510Z,99159.12
2019-02-02T20:01:25.322Z,99172.23
2019-02-02T20:03:53.078Z,99165.98
2019-02-02T20:06:20.866Z,99175.41
2019-02-02T20:08:48.809Z,99186.78
2019-02-02T20:11:16.610Z,99192.03
2019-02-02T20:13:44.397Z,99184.05
2019-02-02T20:16:12.124Z,99193.11
2019-02-02T20:18:39.963Z,99193.93
2019-02-02T20:21:07.833Z,99187.19
2019-02-02T20:23:38.617Z,99190.16
2019-02-02T20:26:05.423Z,99196.11
2019-02-02T20:28:33.245Z,99188.74
2019-02-02T20:31:01.044Z,99190.56
2019-02-02T20:33:29.891Z,99195.61
2019-02-02T20:35:57.686Z,99207.27
2019-02-02T20:38:25.539Z,99211.80
2019-02-02T20:40:53.340Z,99219.67
2019-02-02T20:43:21.166Z,99218.95
2019-02-02T20:45:48.951Z,99227.64
2019-02-02T20:48:16.797Z,99233.34
2019-02-02T20:50:44.638Z,99238.72
2019-02-02T20:53:12.533Z,99240.83
2019-02-02T20:55:43.246Z,99239.23
2019-02-02T20:58:11.064Z,99239.00
2019-02-02T21:00:39.121Z,99240.30
2019-02-02T21:03:06.905Z,99246.31
2019-02-02T21:05:34.711Z,99249.58
2019-02-02T21:08:04.597Z,99250.70
2019-02-02T21:10:32.447Z,99259.36
2019-02-02T21:13:00.222Z,99264.22
2019-02-02T21:15:28.125Z,99264.48
2019-02-02T21:17:55.901Z,99271.63
2019-02-02T21:20:26.192Z,99275.69
2019-02-02T21:22:54.025Z,99279.31
2019-02-02T21:25:22.146Z,99286.20
2019-02-02T21:27:49.937Z,99297.25
2019-02-02T21:30:26.130Z,99296.12
2019-02-02T21:32:53.893Z,99292.63
2019-02-02T21:35:22.311Z,99298.26
2019-02-02T21:37:50.054Z,99302.77
2019-02-02T21:40:21.011Z,99311.69
2019-02-02T21:42:48.747Z,99305.97
2019-02-02T21:45:16.649Z,99307.70
2019-02-02T21:47:44.391Z,99306.23
2019-02-02T21:50:17.923Z,99312.09
2019-02-02T21:52:45.700Z,99323.23
2019-02-02T21:55:16.398Z,99324.38
2019-02-02T21:57:44.245Z,99316.75
2019-02-02T22:00:21.644Z,99323.66
2019-02-02T22:02:49.502Z,99329.63
2019-02-02T22:05:17.416Z,99338.52
2019-02-02T22:07:47.289Z,99352.05
2019-02-02T22:10:15.076Z,99338.28
2019-02-02T22:12:43.110Z,99342.31
2019-02-02T22:15:17.927Z,99343.64
2019-02-02T22:17:45.994Z,99350.30
2019-02-02T22:20:14.428Z,99356.50
2019-02-02T22:22:42.251Z,99356.11
2019-02-02T22:25:22.552Z,99356.20
2019-02-02T22:27:50.438Z,99364.92
2019-02-02T22:30:21.520Z,99371.47
2019-02-02T22:32:49.335Z,99365.99
2019-02-02T22:35:17.102Z,99376.06
2019-02-02T22:37:44.884Z,99389.85
2019-02-02T22:40:16.019Z,99386.21
2019-02-02T22:42:43.863Z,99390.64
2019-02-02T22:45:14.529Z,99400.52
2019-02-02T22:47:42.319Z,99406.86
2019-02-02T22:50:13.210Z,99400.52
2019-02-02T22:52:40.985Z,99413.21
2019-02-02T22:55:09.661Z,99419.30
2019-02-02T22:57:37.427Z,99436.53
2019-02-02T23:01:01.127Z,99442.03
2019-02-02T23:03:46.118Z,99454.34
2019-02-02T23:07:02.885Z,99477.19
2019-02-02T23:10:35.189Z,99485.81
2019-02-02T23:13:37.165Z,99488.94
2019-02-02T23:16:22.123Z,99485.88
2019-02-02T23:18:50.309Z,99486.58
2019-02-02T23:21:18.160Z,99490.95
2019-02-02T23:23:45.950Z,99498.30
2019-02-02T23:26:13.729Z,99504.42
2019-02-02T23:28:41.485Z,99499.16
2019-02-02T23:31:09.323Z,99508.89
2019-02-02T23:33:37.386Z,99507.27
2019-02-02T23:36:05.149Z,99509.80
2019-02-02T23:38:32.917Z,99506.71
2019-02-02T23:41:00.683Z,99507.78
2019-02-02T23:43:28.522Z,99506.95
2019-02-02T23:45:56.288Z,99513.43
2019-02-02T23:48:24.320Z,99508.37
2019-02-02T23:50:52.106Z,99506.00
2019-02-02T23:53:19.857Z,99502.01
2019-02-02T23:55:47.669Z,99494.34
2019-02-02T23:58:15.448Z,99498.52
